sensor_id;sensor_type;location;lat;lon;timestamp;temperature;humidity
38333;DHT22;25748;46.670;14.272;2023-12-22T00:01:42;0.30;67.90
38333;DHT22;25748;46.670;14.272;2023-12-22T00:04:07;0.40;68.30
38333;DHT22;25748;46.670;14.272;2023-12-22T00:06:33;0.40;68.40
38333;DHT22;25748;46.670;14.272;2023-12-22T00:08:59;0.30;68.30
38333;DHT22;25748;46.670;14.272;2023-12-22T00:11:24;0.40;68.70
38333;DHT22;25748;46.670;14.272;2023-12-22T00:13:50;0.40;68.90
38333;DHT22;25748;46.670;14.272;2023-12-22T00:16:16;0.50;69.10
38333;DHT22;25748;46.670;14.272;2023-12-22T00:18:41;0.50;69.20
38333;DHT22;25748;46.670;14.272;2023-12-22T00:21:10;0.60;69.40
38333;DHT22;25748;46.670;14.272;2023-12-22T00:23:36;0.60;69.60
38333;DHT22;25748;46.670;14.272;2023-12-22T00:26:05;0.60;69.40
38333;DHT22;25748;46.670;14.272;2023-12-22T00:28:31;0.70;69.50
38333;DHT22;25748;46.670;14.272;2023-12-22T00:30:57;0.60;69.50
38333;DHT22;25748;46.670;14.272;2023-12-22T00:33:24;0.70;69.60
38333;DHT22;25748;46.670;14.272;2023-12-22T00:35:51;0.70;69.60
38333;DHT22;25748;46.670;14.272;2023-12-22T00:38:16;0.80;69.70
38333;DHT22;25748;46.670;14.272;2023-12-22T00:40:42;0.80;69.50
38333;DHT22;25748;46.670;14.272;2023-12-22T00:43:08;0.80;69.50
38333;DHT22;25748;46.670;14.272;2023-12-22T00:45:33;0.90;69.70
38333;DHT22;25748;46.670;14.272;2023-12-22T00:47:59;0.90;69.60
38333;DHT22;25748;46.670;14.272;2023-12-22T00:50:24;0.90;69.80
38333;DHT22;25748;46.670;14.272;2023-12-22T00:52:50;0.90;69.60
38333;DHT22;25748;46.670;14.272;2023-12-22T00:55:16;0.90;69.40
38333;DHT22;25748;46.670;14.272;2023-12-22T00:57:41;0.90;69.70
38333;DHT22;25748;46.670;14.272;2023-12-22T01:00:08;1.00;69.70
38333;DHT22;25748;46.670;14.272;2023-12-22T01:02:38;1.00;69.50
38333;DHT22;25748;46.670;14.272;2023-12-22T01:05:04;1.00;69.60
38333;DHT22;25748;46.670;14.272;2023-12-22T01:07:30;1.00;69.60
38333;DHT22;25748;46.670;14.272;2023-12-22T01:09:58;0.90;69.40
38333;DHT22;25748;46.670;14.272;2023-12-22T01:12:27;1.00;69.80
38333;DHT22;25748;46.670;14.272;2023-12-22T01:14:55;1.00;69.90
38333;DHT22;25748;46.670;14.272;2023-12-22T01:17:20;1.00;69.70
38333;DHT22;25748;46.670;14.272;2023-12-22T01:19:46;1.00;69.80
38333;DHT22;25748;46.670;14.272;2023-12-22T01:22:11;1.00;69.80
38333;DHT22;25748;46.670;14.272;2023-12-22T01:24:37;1.10;70.00
38333;DHT22;25748;46.670;14.272;2023-12-22T01:27:06;1.10;70.10
38333;DHT22;25748;46.670;14.272;2023-12-22T01:29:32;1.00;69.70
38333;DHT22;25748;46.670;14.272;2023-12-22T01:31:58;1.10;70.10
38333;DHT22;25748;46.670;14.272;2023-12-22T01:34:23;1.10;70.20
38333;DHT22;25748;46.670;14.272;2023-12-22T01:36:49;1.10;70.20
38333;DHT22;25748;46.670;14.272;2023-12-22T01:39:15;1.20;70.20
38333;DHT22;25748;46.670;14.272;2023-12-22T01:41:41;1.20;70.10
38333;DHT22;25748;46.670;14.272;2023-12-22T01:44:06;1.20;70.10
38333;DHT22;25748;46.670;14.272;2023-12-22T01:46:32;1.20;70.00
38333;DHT22;25748;46.670;14.272;2023-12-22T01:49:00;1.30;69.80
38333;DHT22;25748;46.670;14.272;2023-12-22T01:51:33;1.30;69.50
38333;DHT22;25748;46.670;14.272;2023-12-22T01:54:00;1.30;69.60
38333;DHT22;25748;46.670;14.272;2023-12-22T01:56:27;1.30;69.80
38333;DHT22;25748;46.670;14.272;2023-12-22T01:58:55;1.30;69.70
38333;DHT22;25748;46.670;14.272;2023-12-22T02:01:23;1.30;69.70
38333;DHT22;25748;46.670;14.272;2023-12-22T02:03:50;1.30;69.60
38333;DHT22;25748;46.670;14.272;2023-12-22T02:06:18;1.30;69.30
38333;DHT22;25748;46.670;14.272;2023-12-22T02:08:46;1.30;69.60
38333;DHT22;25748;46.670;14.272;2023-12-22T02:11:13;1.30;69.70
38333;DHT22;25748;46.670;14.272;2023-12-22T02:13:38;1.30;69.70
38333;DHT22;25748;46.670;14.272;2023-12-22T02:16:17;1.30;69.90
38333;DHT22;25748;46.670;14.272;2023-12-22T02:18:47;1.30;69.70
38333;DHT22;25748;46.670;14.272;2023-12-22T02:21:14;1.30;70.00
38333;DHT22;25748;46.670;14.272;2023-12-22T02:23:39;1.30;69.90
38333;DHT22;25748;46.670;14.272;2023-12-22T02:26:27;1.30;70.20
38333;DHT22;25748;46.670;14.272;2023-12-22T02:28:56;1.40;70.50
38333;DHT22;25748;46.670;14.272;2023-12-22T02:31:47;1.40;70.30
38333;DHT22;25748;46.670;14.272;2023-12-22T02:34:19;1.40;70.20
38333;DHT22;25748;46.670;14.272;2023-12-22T02:36:46;1.40;70.30
38333;DHT22;25748;46.670;14.272;2023-12-22T02:39:14;1.40;70.20
38333;DHT22;25748;46.670;14.272;2023-12-22T02:41:41;1.40;70.30
38333;DHT22;25748;46.670;14.272;2023-12-22T02:44:06;1.40;70.40
38333;DHT22;25748;46.670;14.272;2023-12-22T02:46:33;1.40;70.50
38333;DHT22;25748;46.670;14.272;2023-12-22T02:48:59;1.50;70.80
38333;DHT22;25748;46.670;14.272;2023-12-22T02:51:25;1.50;70.60
38333;DHT22;25748;46.670;14.272;2023-12-22T02:53:50;1.50;70.70
38333;DHT22;25748;46.670;14.272;2023-12-22T02:56:16;1.50;70.70
38333;DHT22;25748;46.670;14.272;2023-12-22T02:58:41;1.40;70.40
38333;DHT22;25748;46.670;14.272;2023-12-22T03:01:07;1.50;70.70
38333;DHT22;25748;46.670;14.272;2023-12-22T03:03:33;1.50;70.70
38333;DHT22;25748;46.670;14.272;2023-12-22T03:05:58;1.50;70.80
38333;DHT22;25748;46.670;14.272;2023-12-22T03:08:24;1.50;70.80
38333;DHT22;25748;46.670;14.272;2023-12-22T03:10:49;1.50;71.00
38333;DHT22;25748;46.670;14.272;2023-12-22T03:13:15;1.60;71.10
38333;DHT22;25748;46.670;14.272;2023-12-22T03:15:41;1.60;71.10
38333;DHT22;25748;46.670;14.272;2023-12-22T03:18:06;1.70;71.10
38333;DHT22;25748;46.670;14.272;2023-12-22T03:20:32;1.70;70.80
38333;DHT22;25748;46.670;14.272;2023-12-22T03:22:58;1.70;71.00
38333;DHT22;25748;46.670;14.272;2023-12-22T03:25:23;1.70;71.00
38333;DHT22;25748;46.670;14.272;2023-12-22T03:27:50;1.70;71.10
38333;DHT22;25748;46.670;14.272;2023-12-22T03:30:15;1.70;71.10
38333;DHT22;25748;46.670;14.272;2023-12-22T03:32:42;1.70;71.10
38333;DHT22;25748;46.670;14.272;2023-12-22T03:35:08;1.80;71.20
38333;DHT22;25748;46.670;14.272;2023-12-22T03:37:34;1.80;71.30
38333;DHT22;25748;46.670;14.272;2023-12-22T03:39:59;1.80;71.30
38333;DHT22;25748;46.670;14.272;2023-12-22T03:42:25;1.80;71.40
38333;DHT22;25748;46.670;14.272;2023-12-22T03:44:51;1.80;71.40
38333;DHT22;25748;46.670;14.272;2023-12-22T03:47:16;1.80;71.20
38333;DHT22;25748;46.670;14.272;2023-12-22T03:49:42;1.80;71.30
38333;DHT22;25748;46.670;14.272;2023-12-22T03:52:08;1.80;71.30
38333;DHT22;25748;46.670;14.272;2023-12-22T03:54:34;1.80;71.30
38333;DHT22;25748;46.670;14.272;2023-12-22T03:56:59;1.80;71.10
38333;DHT22;25748;46.670;14.272;2023-12-22T03:59:25;1.80;71.20
38333;DHT22;25748;46.670;14.272;2023-12-22T04:01:52;1.80;70.90
38333;DHT22;25748;46.670;14.272;2023-12-22T04:04:18;1.80;71.00
38333;DHT22;25748;46.670;14.272;2023-12-22T04:06:44;1.90;71.00
38333;DHT22;25748;46.670;14.272;2023-12-22T04:09:09;1.80;70.80
38333;DHT22;25748;46.670;14.272;2023-12-22T04:11:35;1.80;71.00
38333;DHT22;25748;46.670;14.272;2023-12-22T04:14:02;1.80;71.00
38333;DHT22;25748;46.670;14.272;2023-12-22T04:16:28;1.80;71.20
38333;DHT22;25748;46.670;14.272;2023-12-22T04:18:53;1.90;71.40
38333;DHT22;25748;46.670;14.272;2023-12-22T04:21:19;1.80;71.00
38333;DHT22;25748;46.670;14.272;2023-12-22T04:23:45;1.90;71.40
38333;DHT22;25748;46.670;14.272;2023-12-22T04:26:10;1.90;72.00
38333;DHT22;25748;46.670;14.272;2023-12-22T04:28:36;2.00;71.20
38333;DHT22;25748;46.670;14.272;2023-12-22T04:31:02;2.10;70.90
38333;DHT22;25748;46.670;14.272;2023-12-22T04:33:28;2.00;70.70
38333;DHT22;25748;46.670;14.272;2023-12-22T04:35:54;2.00;70.70
38333;DHT22;25748;46.670;14.272;2023-12-22T04:38:19;2.00;70.90
38333;DHT22;25748;46.670;14.272;2023-12-22T04:40:45;1.90;70.20
38333;DHT22;25748;46.670;14.272;2023-12-22T04:43:10;2.00;70.90
38333;DHT22;25748;46.670;14.272;2023-12-22T04:45:36;2.00;71.10
38333;DHT22;25748;46.670;14.272;2023-12-22T04:48:02;2.00;71.30
38333;DHT22;25748;46.670;14.272;2023-12-22T04:50:27;2.10;71.40
38333;DHT22;25748;46.670;14.272;2023-12-22T04:52:53;2.10;71.50
38333;DHT22;25748;46.670;14.272;2023-12-22T04:55:19;2.10;71.70
38333;DHT22;25748;46.670;14.272;2023-12-22T04:57:45;2.10;71.70
38333;DHT22;25748;46.670;14.272;2023-12-22T05:00:12;2.20;71.80
38333;DHT22;25748;46.670;14.272;2023-12-22T05:02:38;2.20;71.80
38333;DHT22;25748;46.670;14.272;2023-12-22T05:05:04;2.20;71.90
38333;DHT22;25748;46.670;14.272;2023-12-22T05:07:29;2.30;71.90
38333;DHT22;25748;46.670;14.272;2023-12-22T05:09:55;2.30;71.90
38333;DHT22;25748;46.670;14.272;2023-12-22T05:12:21;2.30;71.90
38333;DHT22;25748;46.670;14.272;2023-12-22T05:14:46;2.30;71.40
38333;DHT22;25748;46.670;14.272;2023-12-22T05:17:12;2.20;71.10
38333;DHT22;25748;46.670;14.272;2023-12-22T05:19:38;2.30;71.30
38333;DHT22;25748;46.670;14.272;2023-12-22T05:22:03;2.30;71.50
38333;DHT22;25748;46.670;14.272;2023-12-22T05:24:29;2.30;71.60
38333;DHT22;25748;46.670;14.272;2023-12-22T05:26:55;2.40;71.70
38333;DHT22;25748;46.670;14.272;2023-12-22T05:29:20;2.40;71.70
38333;DHT22;25748;46.670;14.272;2023-12-22T05:31:46;2.40;71.30
38333;DHT22;25748;46.670;14.272;2023-12-22T05:34:11;2.40;71.30
38333;DHT22;25748;46.670;14.272;2023-12-22T05:36:37;2.40;71.40
38333;DHT22;25748;46.670;14.272;2023-12-22T05:39:03;2.40;71.40
38333;DHT22;25748;46.670;14.272;2023-12-22T05:41:28;2.40;71.40
38333;DHT22;25748;46.670;14.272;2023-12-22T05:43:54;2.50;71.50
38333;DHT22;25748;46.670;14.272;2023-12-22T05:46:20;2.50;71.40
38333;DHT22;25748;46.670;14.272;2023-12-22T05:48:46;2.50;71.10
38333;DHT22;25748;46.670;14.272;2023-12-22T05:51:11;2.50;70.90
38333;DHT22;25748;46.670;14.272;2023-12-22T05:53:42;2.50;70.90
38333;DHT22;25748;46.670;14.272;2023-12-22T05:56:18;2.50;70.90
38333;DHT22;25748;46.670;14.272;2023-12-22T05:58:45;2.50;70.90
38333;DHT22;25748;46.670;14.272;2023-12-22T06:01:18;2.50;70.80
38333;DHT22;25748;46.670;14.272;2023-12-22T06:03:44;2.40;70.20
38333;DHT22;25748;46.670;14.272;2023-12-22T06:06:10;2.40;70.30
38333;DHT22;25748;46.670;14.272;2023-12-22T06:08:37;2.40;70.40
38333;DHT22;25748;46.670;14.272;2023-12-22T06:11:03;2.50;70.20
38333;DHT22;25748;46.670;14.272;2023-12-22T06:13:29;2.50;70.10
38333;DHT22;25748;46.670;14.272;2023-12-22T06:15:54;2.50;70.10
38333;DHT22;25748;46.670;14.272;2023-12-22T06:18:20;2.50;70.20
38333;DHT22;25748;46.670;14.272;2023-12-22T06:20:45;2.50;70.20
38333;DHT22;25748;46.670;14.272;2023-12-22T06:23:11;2.50;70.20
38333;DHT22;25748;46.670;14.272;2023-12-22T06:25:37;2.50;70.30
38333;DHT22;25748;46.670;14.272;2023-12-22T06:28:02;2.50;70.40
38333;DHT22;25748;46.670;14.272;2023-12-22T06:30:29;2.60;70.50
38333;DHT22;25748;46.670;14.272;2023-12-22T06:32:55;2.50;70.50
38333;DHT22;25748;46.670;14.272;2023-12-22T06:35:21;2.60;70.60
38333;DHT22;25748;46.670;14.272;2023-12-22T06:37:49;2.60;70.40
38333;DHT22;25748;46.670;14.272;2023-12-22T06:40:15;2.60;70.50
38333;DHT22;25748;46.670;14.272;2023-12-22T06:42:41;2.60;70.50
38333;DHT22;25748;46.670;14.272;2023-12-22T06:45:07;2.60;70.60
38333;DHT22;25748;46.670;14.272;2023-12-22T06:47:32;2.60;70.50
38333;DHT22;25748;46.670;14.272;2023-12-22T06:49:58;2.60;70.50
38333;DHT22;25748;46.670;14.272;2023-12-22T06:52:24;2.60;70.40
38333;DHT22;25748;46.670;14.272;2023-12-22T06:54:50;2.60;70.40
38333;DHT22;25748;46.670;14.272;2023-12-22T06:57:15;2.60;70.50
38333;DHT22;25748;46.670;14.272;2023-12-22T06:59:42;2.60;70.50
38333;DHT22;25748;46.670;14.272;2023-12-22T07:02:08;2.70;70.70
38333;DHT22;25748;46.670;14.272;2023-12-22T07:04:33;2.70;70.70
38333;DHT22;25748;46.670;14.272;2023-12-22T07:06:59;2.70;70.70
38333;DHT22;25748;46.670;14.272;2023-12-22T07:11:53;2.70;70.60
38333;DHT22;25748;46.670;14.272;2023-12-22T07:14:20;2.70;70.60
38333;DHT22;25748;46.670;14.272;2023-12-22T07:16:45;2.70;70.70
38333;DHT22;25748;46.670;14.272;2023-12-22T07:19:11;2.80;70.80
38333;DHT22;25748;46.670;14.272;2023-12-22T07:21:40;2.80;70.70
38333;DHT22;25748;46.670;14.272;2023-12-22T07:24:07;2.80;70.60
38333;DHT22;25748;46.670;14.272;2023-12-22T07:26:33;2.70;70.70
38333;DHT22;25748;46.670;14.272;2023-12-22T07:28:58;2.80;70.70
38333;DHT22;25748;46.670;14.272;2023-12-22T07:31:24;2.80;70.80
38333;DHT22;25748;46.670;14.272;2023-12-22T07:33:51;2.80;70.90
38333;DHT22;25748;46.670;14.272;2023-12-22T07:36:19;2.80;70.80
38333;DHT22;25748;46.670;14.272;2023-12-22T07:38:46;2.80;70.90
38333;DHT22;25748;46.670;14.272;2023-12-22T07:41:12;2.80;70.90
38333;DHT22;25748;46.670;14.272;2023-12-22T07:43:37;2.90;71.40
38333;DHT22;25748;46.670;14.272;2023-12-22T07:46:03;2.80;70.90
38333;DHT22;25748;46.670;14.272;2023-12-22T07:48:29;2.80;70.90
38333;DHT22;25748;46.670;14.272;2023-12-22T07:50:54;2.90;71.00
38333;DHT22;25748;46.670;14.272;2023-12-22T07:53:20;2.90;70.90
38333;DHT22;25748;46.670;14.272;2023-12-22T07:55:46;2.80;70.70
38333;DHT22;25748;46.670;14.272;2023-12-22T07:58:12;2.90;70.70
38333;DHT22;25748;46.670;14.272;2023-12-22T08:00:38;2.90;71.00
38333;DHT22;25748;46.670;14.272;2023-12-22T08:03:04;2.90;71.10
38333;DHT22;25748;46.670;14.272;2023-12-22T08:05:29;2.90;71.30
38333;DHT22;25748;46.670;14.272;2023-12-22T08:07:55;3.00;71.50
38333;DHT22;25748;46.670;14.272;2023-12-22T08:10:21;3.00;71.60
38333;DHT22;25748;46.670;14.272;2023-12-22T08:12:47;3.00;71.70
38333;DHT22;25748;46.670;14.272;2023-12-22T08:15:12;3.10;72.00
38333;DHT22;25748;46.670;14.272;2023-12-22T08:17:48;3.10;71.90
38333;DHT22;25748;46.670;14.272;2023-12-22T08:20:21;3.20;72.10
38333;DHT22;25748;46.670;14.272;2023-12-22T08:22:47;3.30;72.20
38333;DHT22;25748;46.670;14.272;2023-12-22T08:25:13;3.30;72.00
38333;DHT22;25748;46.670;14.272;2023-12-22T08:27:39;3.30;72.00
38333;DHT22;25748;46.670;14.272;2023-12-22T08:30:05;3.30;72.00
38333;DHT22;25748;46.670;14.272;2023-12-22T08:32:31;3.30;72.10
38333;DHT22;25748;46.670;14.272;2023-12-22T08:34:57;3.40;72.20
38333;DHT22;25748;46.670;14.272;2023-12-22T08:37:22;3.30;71.50
38333;DHT22;25748;46.670;14.272;2023-12-22T08:39:48;3.30;71.50
38333;DHT22;25748;46.670;14.272;2023-12-22T08:42:16;3.30;71.30
38333;DHT22;25748;46.670;14.272;2023-12-22T08:44:42;3.30;71.40
38333;DHT22;25748;46.670;14.272;2023-12-22T08:47:07;3.30;71.60
38333;DHT22;25748;46.670;14.272;2023-12-22T08:49:33;3.30;71.60
38333;DHT22;25748;46.670;14.272;2023-12-22T08:51:59;3.30;71.80
38333;DHT22;25748;46.670;14.272;2023-12-22T08:54:24;3.40;72.10
38333;DHT22;25748;46.670;14.272;2023-12-22T08:56:50;3.40;72.20
38333;DHT22;25748;46.670;14.272;2023-12-22T08:59:16;3.50;72.40
38333;DHT22;25748;46.670;14.272;2023-12-22T09:01:42;3.50;72.40
38333;DHT22;25748;46.670;14.272;2023-12-22T09:04:09;3.60;72.60
38333;DHT22;25748;46.670;14.272;2023-12-22T09:06:35;3.60;72.60
38333;DHT22;25748;46.670;14.272;2023-12-22T09:09:01;3.60;72.70
38333;DHT22;25748;46.670;14.272;2023-12-22T09:11:26;3.60;72.20
38333;DHT22;25748;46.670;14.272;2023-12-22T09:13:52;3.60;72.10
38333;DHT22;25748;46.670;14.272;2023-12-22T09:16:24;3.60;72.20
38333;DHT22;25748;46.670;14.272;2023-12-22T09:18:51;3.70;72.30
38333;DHT22;25748;46.670;14.272;2023-12-22T09:21:17;3.70;72.30
38333;DHT22;25748;46.670;14.272;2023-12-22T09:23:46;3.70;72.40
38333;DHT22;25748;46.670;14.272;2023-12-22T09:26:13;3.80;72.50
38333;DHT22;25748;46.670;14.272;2023-12-22T09:28:39;3.80;72.30
38333;DHT22;25748;46.670;14.272;2023-12-22T09:31:06;3.80;72.50
38333;DHT22;25748;46.670;14.272;2023-12-22T09:33:32;3.90;72.70
38333;DHT22;25748;46.670;14.272;2023-12-22T09:35:58;3.90;72.80
38333;DHT22;25748;46.670;14.272;2023-12-22T09:38:23;4.00;73.00
38333;DHT22;25748;46.670;14.272;2023-12-22T09:40:50;4.00;73.00
38333;DHT22;25748;46.670;14.272;2023-12-22T09:43:16;4.10;73.10
38333;DHT22;25748;46.670;14.272;2023-12-22T09:45:45;4.10;73.00
38333;DHT22;25748;46.670;14.272;2023-12-22T09:48:12;4.10;73.00
38333;DHT22;25748;46.670;14.272;2023-12-22T09:50:45;4.20;73.10
38333;DHT22;25748;46.670;14.272;2023-12-22T09:53:13;4.20;73.10
38333;DHT22;25748;46.670;14.272;2023-12-22T09:55:45;4.20;72.90
38333;DHT22;25748;46.670;14.272;2023-12-22T09:58:12;4.30;72.90
38333;DHT22;25748;46.670;14.272;2023-12-22T10:00:39;4.30;72.80
38333;DHT22;25748;46.670;14.272;2023-12-22T10:03:10;4.30;72.80
38333;DHT22;25748;46.670;14.272;2023-12-22T10:05:37;4.30;72.80
38333;DHT22;25748;46.670;14.272;2023-12-22T10:08:04;4.30;72.60
38333;DHT22;25748;46.670;14.272;2023-12-22T10:10:30;4.40;72.70
38333;DHT22;25748;46.670;14.272;2023-12-22T10:12:56;4.40;72.80
38333;DHT22;25748;46.670;14.272;2023-12-22T10:15:23;4.40;73.20
38333;DHT22;25748;46.670;14.272;2023-12-22T10:17:53;4.40;72.90
38333;DHT22;25748;46.670;14.272;2023-12-22T10:20:19;4.40;72.70
38333;DHT22;25748;46.670;14.272;2023-12-22T10:22:44;4.50;72.70
38333;DHT22;25748;46.670;14.272;2023-12-22T10:25:15;4.40;72.50
38333;DHT22;25748;46.670;14.272;2023-12-22T10:27:42;4.40;72.50
38333;DHT22;25748;46.670;14.272;2023-12-22T10:30:09;4.40;72.50
38333;DHT22;25748;46.670;14.272;2023-12-22T10:32:42;4.50;72.70
38333;DHT22;25748;46.670;14.272;2023-12-22T10:35:08;4.50;72.40
38333;DHT22;25748;46.670;14.272;2023-12-22T10:37:34;4.50;72.20
38333;DHT22;25748;46.670;14.272;2023-12-22T10:40:04;4.50;72.00
38333;DHT22;25748;46.670;14.272;2023-12-22T10:42:30;4.50;72.10
38333;DHT22;25748;46.670;14.272;2023-12-22T10:44:56;4.60;72.00
38333;DHT22;25748;46.670;14.272;2023-12-22T10:47:22;4.70;72.10
38333;DHT22;25748;46.670;14.272;2023-12-22T10:49:48;4.70;72.20
38333;DHT22;25748;46.670;14.272;2023-12-22T10:52:18;4.70;72.20
38333;DHT22;25748;46.670;14.272;2023-12-22T10:54:44;4.80;72.30
38333;DHT22;25748;46.670;14.272;2023-12-22T10:57:10;4.80;72.70
38333;DHT22;25748;46.670;14.272;2023-12-22T10:59:40;4.70;72.80
38333;DHT22;25748;46.670;14.272;2023-12-22T11:02:13;4.80;73.10
38333;DHT22;25748;46.670;14.272;2023-12-22T11:04:41;4.80;73.30
38333;DHT22;25748;46.670;14.272;2023-12-22T11:07:09;4.80;73.20
38333;DHT22;25748;46.670;14.272;2023-12-22T11:09:36;4.90;73.40
38333;DHT22;25748;46.670;14.272;2023-12-22T11:12:04;4.90;73.50
38333;DHT22;25748;46.670;14.272;2023-12-22T11:14:31;4.90;73.60
38333;DHT22;25748;46.670;14.272;2023-12-22T11:17:00;5.00;73.70
38333;DHT22;25748;46.670;14.272;2023-12-22T11:19:27;5.00;73.80
38333;DHT22;25748;46.670;14.272;2023-12-22T11:21:55;5.00;73.80
38333;DHT22;25748;46.670;14.272;2023-12-22T11:24:21;5.10;73.70
38333;DHT22;25748;46.670;14.272;2023-12-22T11:26:49;5.10;73.50
38333;DHT22;25748;46.670;14.272;2023-12-22T11:29:17;5.00;73.20
38333;DHT22;25748;46.670;14.272;2023-12-22T11:31:47;4.90;72.80
38333;DHT22;25748;46.670;14.272;2023-12-22T11:34:17;4.90;72.80
38333;DHT22;25748;46.670;14.272;2023-12-22T11:36:45;4.90;72.80
38333;DHT22;25748;46.670;14.272;2023-12-22T11:39:12;4.90;72.90
38333;DHT22;25748;46.670;14.272;2023-12-22T11:41:40;4.90;72.80
38333;DHT22;25748;46.670;14.272;2023-12-22T11:44:07;4.80;72.60
38333;DHT22;25748;46.670;14.272;2023-12-22T11:46:33;4.90;72.50
38333;DHT22;25748;46.670;14.272;2023-12-22T11:49:00;4.80;72.40
38333;DHT22;25748;46.670;14.272;2023-12-22T11:51:31;4.80;72.50
38333;DHT22;25748;46.670;14.272;2023-12-22T11:53:57;4.90;72.70
38333;DHT22;25748;46.670;14.272;2023-12-22T11:56:24;4.90;72.70
38333;DHT22;25748;46.670;14.272;2023-12-22T11:58:52;4.90;72.60
38333;DHT22;25748;46.670;14.272;2023-12-22T12:01:21;4.90;72.70
38333;DHT22;25748;46.670;14.272;2023-12-22T12:03:52;4.90;72.60
38333;DHT22;25748;46.670;14.272;2023-12-22T12:06:30;4.90;72.80
38333;DHT22;25748;46.670;14.272;2023-12-22T12:08:58;4.90;72.90
38333;DHT22;25748;46.670;14.272;2023-12-22T12:11:26;5.00;73.10
38333;DHT22;25748;46.670;14.272;2023-12-22T12:14:09;5.00;73.30
38333;DHT22;25748;46.670;14.272;2023-12-22T12:16:39;5.00;73.40
38333;DHT22;25748;46.670;14.272;2023-12-22T12:19:08;5.10;73.50
38333;DHT22;25748;46.670;14.272;2023-12-22T12:21:34;5.10;73.70
38333;DHT22;25748;46.670;14.272;2023-12-22T12:23:59;5.20;73.80
38333;DHT22;25748;46.670;14.272;2023-12-22T12:26:25;5.20;73.90
38333;DHT22;25748;46.670;14.272;2023-12-22T12:28:52;5.20;74.00
38333;DHT22;25748;46.670;14.272;2023-12-22T12:31:18;5.30;74.10
38333;DHT22;25748;46.670;14.272;2023-12-22T12:33:44;5.40;74.20
38333;DHT22;25748;46.670;14.272;2023-12-22T12:36:11;5.40;74.10
38333;DHT22;25748;46.670;14.272;2023-12-22T12:39:05;5.40;74.20
38333;DHT22;25748;46.670;14.272;2023-12-22T12:41:36;5.50;74.30
38333;DHT22;25748;46.670;14.272;2023-12-22T12:44:04;5.50;74.30
38333;DHT22;25748;46.670;14.272;2023-12-22T12:46:39;5.50;74.30
38333;DHT22;25748;46.670;14.272;2023-12-22T12:49:05;5.50;74.10
38333;DHT22;25748;46.670;14.272;2023-12-22T12:51:38;5.50;74.10
38333;DHT22;25748;46.670;14.272;2023-12-22T12:54:05;5.50;73.90
38333;DHT22;25748;46.670;14.272;2023-12-22T12:59:12;5.50;73.90
38333;DHT22;25748;46.670;14.272;2023-12-22T13:01:43;5.50;74.00
38333;DHT22;25748;46.670;14.272;2023-12-22T13:04:09;5.50;74.00
38333;DHT22;25748;46.670;14.272;2023-12-22T13:06:35;5.50;73.90
38333;DHT22;25748;46.670;14.272;2023-12-22T13:09:00;5.50;74.10
38333;DHT22;25748;46.670;14.272;2023-12-22T13:11:27;5.50;73.90
38333;DHT22;25748;46.670;14.272;2023-12-22T13:13:54;5.50;73.80
38333;DHT22;25748;46.670;14.272;2023-12-22T13:16:20;5.50;73.70
38333;DHT22;25748;46.670;14.272;2023-12-22T13:18:46;5.50;73.70
38333;DHT22;25748;46.670;14.272;2023-12-22T13:21:12;5.60;73.80
38333;DHT22;25748;46.670;14.272;2023-12-22T13:23:39;5.50;73.60
38333;DHT22;25748;46.670;14.272;2023-12-22T13:26:04;5.50;73.60
38333;DHT22;25748;46.670;14.272;2023-12-22T13:28:30;5.60;73.70
38333;DHT22;25748;46.670;14.272;2023-12-22T13:30:56;5.60;73.60
38333;DHT22;25748;46.670;14.272;2023-12-22T13:33:22;5.60;73.70
38333;DHT22;25748;46.670;14.272;2023-12-22T13:35:57;5.60;73.70
38333;DHT22;25748;46.670;14.272;2023-12-22T13:38:23;5.70;73.80
38333;DHT22;25748;46.670;14.272;2023-12-22T13:40:49;5.70;73.90
38333;DHT22;25748;46.670;14.272;2023-12-22T13:43:15;5.70;73.90
38333;DHT22;25748;46.670;14.272;2023-12-22T13:45:41;5.70;73.80
38333;DHT22;25748;46.670;14.272;2023-12-22T13:48:07;5.70;73.90
38333;DHT22;25748;46.670;14.272;2023-12-22T13:50:33;5.80;73.90
38333;DHT22;25748;46.670;14.272;2023-12-22T13:53:11;5.80;74.40
38333;DHT22;25748;46.670;14.272;2023-12-22T13:55:36;5.80;74.10
38333;DHT22;25748;46.670;14.272;2023-12-22T13:58:03;5.80;74.10
38333;DHT22;25748;46.670;14.272;2023-12-22T14:00:30;5.90;74.10
38333;DHT22;25748;46.670;14.272;2023-12-22T14:02:56;5.90;74.00
38333;DHT22;25748;46.670;14.272;2023-12-22T14:05:22;6.00;73.90
38333;DHT22;25748;46.670;14.272;2023-12-22T14:07:48;6.00;73.70
38333;DHT22;25748;46.670;14.272;2023-12-22T14:10:14;6.10;73.40
38333;DHT22;25748;46.670;14.272;2023-12-22T14:12:40;6.10;73.10
38333;DHT22;25748;46.670;14.272;2023-12-22T14:15:10;6.20;73.00
38333;DHT22;25748;46.670;14.272;2023-12-22T14:17:36;6.20;73.10
38333;DHT22;25748;46.670;14.272;2023-12-22T14:20:02;6.30;73.30
38333;DHT22;25748;46.670;14.272;2023-12-22T14:22:30;6.40;73.00
38333;DHT22;25748;46.670;14.272;2023-12-22T14:24:56;6.40;72.80
38333;DHT22;25748;46.670;14.272;2023-12-22T14:27:24;6.50;72.60
38333;DHT22;25748;46.670;14.272;2023-12-22T14:29:50;6.60;72.70
38333;DHT22;25748;46.670;14.272;2023-12-22T14:32:16;6.70;72.30
38333;DHT22;25748;46.670;14.272;2023-12-22T14:34:44;6.80;72.50
38333;DHT22;25748;46.670;14.272;2023-12-22T14:37:10;6.90;72.30
38333;DHT22;25748;46.670;14.272;2023-12-22T14:39:36;7.00;72.40
38333;DHT22;25748;46.670;14.272;2023-12-22T14:42:02;7.10;72.10
38333;DHT22;25748;46.670;14.272;2023-12-22T14:44:31;7.20;71.90
38333;DHT22;25748;46.670;14.272;2023-12-22T14:46:56;7.20;71.50
38333;DHT22;25748;46.670;14.272;2023-12-22T14:49:22;7.20;71.10
38333;DHT22;25748;46.670;14.272;2023-12-22T14:51:48;7.20;70.90
38333;DHT22;25748;46.670;14.272;2023-12-22T14:54:19;7.20;70.70
38333;DHT22;25748;46.670;14.272;2023-12-22T14:56:44;7.20;70.00
38333;DHT22;25748;46.670;14.272;2023-12-22T14:59:10;7.10;69.70
38333;DHT22;25748;46.670;14.272;2023-12-22T15:01:37;7.10;69.60
38333;DHT22;25748;46.670;14.272;2023-12-22T15:04:04;7.00;68.90
38333;DHT22;25748;46.670;14.272;2023-12-22T15:06:31;7.00;68.80
38333;DHT22;25748;46.670;14.272;2023-12-22T15:08:56;6.90;68.50
38333;DHT22;25748;46.670;14.272;2023-12-22T15:11:24;6.80;67.30
38333;DHT22;25748;46.670;14.272;2023-12-22T15:13:50;6.70;67.10
38333;DHT22;25748;46.670;14.272;2023-12-22T15:16:15;6.60;66.00
38333;DHT22;25748;46.670;14.272;2023-12-22T15:18:41;6.50;65.40
38333;DHT22;25748;46.670;14.272;2023-12-22T15:21:07;6.40;65.70
38333;DHT22;25748;46.670;14.272;2023-12-22T15:23:32;6.20;65.80
38333;DHT22;25748;46.670;14.272;2023-12-22T15:25:59;6.10;65.70
38333;DHT22;25748;46.670;14.272;2023-12-22T15:28:24;6.00;65.90
38333;DHT22;25748;46.670;14.272;2023-12-22T15:30:51;5.80;65.90
38333;DHT22;25748;46.670;14.272;2023-12-22T15:33:17;5.70;66.60